Time;durP1;ratioP1;P1;durP2;ratioP2;P2;SDS_P1;SDS_P2;PMS_P1;PMS_P2;Temp;Humidity;BMP_temperature;BMP_pressure;BME280_temperature;BME280_humidity;BME280_pressure;Samples;Min_cycle;Max_cycle;Signal;HPM_P1;HPM_P2
2021/08/09 00:02:23;;;;;;;;;;;21.30;64.10;;;;;;5032270;28;1087;-71
2021/08/09 00:04:48;;;;;;;;;;;21.30;64.10;;;;;;5032018;28;1182;-71
2021/08/09 00:07:14;;;;;;;;;;;21.30;64.30;;;;;;5033206;28;1052;-71
2021/08/09 00:09:39;;;;;;;;;;;21.30;63.80;;;;;;5033200;28;1059;-70
2021/08/09 00:12:05;;;;;;;;;;;21.30;64.00;;;;;;5033382;28;1099;-71
2021/08/09 00:14:31;;;;;;;;;;;21.30;63.80;;;;;;5031547;28;1210;-71
2021/08/09 00:16:56;;;;;;;;;;;21.30;63.70;;;;;;5032183;28;1127;-71
2021/08/09 00:19:22;;;;;;;;;;;21.30;63.10;;;;;;5033123;28;1977;-70
2021/08/09 00:21:48;;;;;;;;;;;21.30;63.50;;;;;;5032176;28;1111;-70
2021/08/09 00:24:14;;;;;;;;;;;21.30;63.20;;;;;;5031287;28;1232;-70
2021/08/09 00:26:39;;;;;;;;;;;21.30;63.20;;;;;;5040861;28;1205;-71
2021/08/09 00:29:05;;;;;;;;;;;21.30;63.10;;;;;;5031943;28;1080;-71
2021/08/09 00:31:30;;;;;;;;;;;21.30;63.00;;;;;;5032986;28;1170;-70
2021/08/09 00:33:55;;;;;;;;;;;21.30;63.10;;;;;;5041057;28;1226;-71
2021/08/09 00:36:21;;;;;;;;;;;21.20;63.20;;;;;;5036784;28;1108;-71
2021/08/09 00:38:47;;;;;;;;;;;21.30;62.70;;;;;;5032476;28;1067;-71
2021/08/09 00:41:12;;;;;;;;;;;21.30;62.90;;;;;;5032826;28;1914;-71
2021/08/09 00:43:37;;;;;;;;;;;21.20;62.90;;;;;;5032900;28;1345;-72
2021/08/09 00:46:04;;;;;;;;;;;21.30;62.90;;;;;;5031989;28;1119;-70
2021/08/09 00:48:31;;;;;;;;;;;21.20;62.80;;;;;;5033226;28;1127;-71
2021/08/09 00:50:57;;;;;;;;;;;21.20;62.80;;;;;;5032874;28;1130;-70
2021/08/09 00:53:22;;;;;;;;;;;21.30;62.70;;;;;;5042172;28;1299;-72
2021/08/09 00:55:51;;;;;;;;;;;21.20;62.50;;;;;;5032626;28;1068;-71
2021/08/09 00:58:16;;;;;;;;;;;21.20;62.30;;;;;;5031561;28;1051;-71
2021/08/09 01:00:42;;;;;;;;;;;21.20;62.30;;;;;;5030960;28;1910;-71
2021/08/09 01:03:07;;;;;;;;;;;21.20;62.40;;;;;;5032389;28;1337;-70
2021/08/09 01:05:33;;;;;;;;;;;21.20;62.40;;;;;;5032072;28;1181;-71
2021/08/09 01:08:03;;;;;;;;;;;21.20;62.50;;;;;;5031983;28;1060;-71
2021/08/09 01:10:32;;;;;;;;;;;21.20;62.30;;;;;;5032217;28;1089;-71
2021/08/09 01:13:16;;;;;;;;;;;21.20;62.30;;;;;;5030884;28;1256;-70
2021/08/09 01:15:42;;;;;;;;;;;21.20;62.20;;;;;;5032516;28;1056;-70
2021/08/09 01:18:08;;;;;;;;;;;21.20;62.10;;;;;;5031118;28;1075;-71
2021/08/09 01:20:53;;;;;;;;;;;21.20;62.00;;;;;;5030704;28;1972;-70
2021/08/09 01:23:34;;;;;;;;;;;21.20;61.80;;;;;;5030612;28;1285;-71
2021/08/09 01:26:01;;;;;;;;;;;21.20;61.70;;;;;;5034517;28;1293;-70
2021/08/09 01:28:29;;;;;;;;;;;21.20;61.60;;;;;;5036294;28;1048;-70
2021/08/09 01:30:55;;;;;;;;;;;21.20;61.60;;;;;;5031964;28;1091;-71
2021/08/09 01:33:21;;;;;;;;;;;21.20;61.50;;;;;;5030734;28;1279;-70
2021/08/09 01:35:46;;;;;;;;;;;21.20;61.50;;;;;;5041689;28;1044;-70
2021/08/09 01:38:12;;;;;;;;;;;21.20;61.40;;;;;;5050667;28;1091;-70
2021/08/09 01:40:37;;;;;;;;;;;21.20;61.30;;;;;;5050687;28;1902;-70
2021/08/09 01:43:02;;;;;;;;;;;21.20;61.10;;;;;;5034368;28;1276;-69
2021/08/09 01:45:28;;;;;;;;;;;21.20;61.00;;;;;;5050392;28;1163;-70
2021/08/09 01:47:54;;;;;;;;;;;21.20;60.80;;;;;;5051156;28;1186;-69
2021/08/09 01:50:19;;;;;;;;;;;21.20;61.00;;;;;;5052087;28;1106;-70
2021/08/09 01:52:45;;;;;;;;;;;21.10;60.50;;;;;;5029617;28;1132;-70
2021/08/09 01:55:11;;;;;;;;;;;21.20;60.80;;;;;;5038273;28;1366;-69
2021/08/09 01:57:36;;;;;;;;;;;21.20;60.70;;;;;;5038916;28;1310;-69
2021/08/09 02:00:06;;;;;;;;;;;21.20;60.60;;;;;;5028008;28;1945;-70
2021/08/09 02:02:32;;;;;;;;;;;21.20;60.60;;;;;;5043702;28;1235;-69
2021/08/09 02:05:08;;;;;;;;;;;21.20;60.50;;;;;;5042682;28;1280;-68
2021/08/09 02:07:34;;;;;;;;;;;21.20;60.40;;;;;;5041609;28;1204;-70
2021/08/09 02:10:00;;;;;;;;;;;21.20;60.70;;;;;;5042575;28;1317;-69
2021/08/09 02:12:25;;;;;;;;;;;21.10;60.60;;;;;;5040427;28;1104;-69
2021/08/09 02:14:51;;;;;;;;;;;21.10;60.40;;;;;;5042112;28;1303;-69
2021/08/09 02:17:17;;;;;;;;;;;21.20;60.20;;;;;;5043256;28;1199;-69
2021/08/09 02:19:47;;;;;;;;;;;21.10;60.10;;;;;;5028974;28;1975;-69
2021/08/09 02:22:13;;;;;;;;;;;21.10;60.00;;;;;;5045452;28;1242;-69
2021/08/09 02:24:45;;;;;;;;;;;21.10;59.90;;;;;;5042758;28;1387;-69
2021/08/09 02:27:11;;;;;;;;;;;21.10;59.80;;;;;;5040608;28;1159;-69
2021/08/09 02:29:37;;;;;;;;;;;21.10;59.70;;;;;;5043590;28;1235;-70
2021/08/09 02:32:03;;;;;;;;;;;21.10;60.00;;;;;;5045203;28;1211;-69
2021/08/09 02:34:32;;;;;;;;;;;21.10;60.10;;;;;;5043694;28;1390;-68
2021/08/09 02:36:57;;;;;;;;;;;21.10;59.90;;;;;;5043108;28;1156;-69
2021/08/09 02:39:23;;;;;;;;;;;21.10;59.50;;;;;;5028960;28;1975;-70
2021/08/09 02:41:48;;;;;;;;;;;21.10;59.40;;;;;;5043533;28;1497;-69
2021/08/09 02:44:14;;;;;;;;;;;21.10;59.40;;;;;;5042085;28;1460;-70
2021/08/09 02:46:40;;;;;;;;;;;21.10;59.40;;;;;;5042434;28;1110;-69
2021/08/09 02:49:05;;;;;;;;;;;21.10;59.30;;;;;;5042922;28;1184;-69
2021/08/09 02:51:31;;;;;;;;;;;21.10;59.30;;;;;;5041763;28;1387;-69
2021/08/09 02:53:56;;;;;;;;;;;21.10;58.90;;;;;;5026443;28;1322;-69
2021/08/09 02:56:23;;;;;;;;;;;21.10;59.40;;;;;;5044937;28;1311;-70
2021/08/09 02:58:48;;;;;;;;;;;21.10;59.30;;;;;;5053093;28;1032;-71
2021/08/09 03:01:14;;;;;;;;;;;21.10;59.30;;;;;;5053133;28;1894;-69
2021/08/09 03:03:39;;;;;;;;;;;21.10;59.20;;;;;;5054738;28;1357;-69
2021/08/09 03:06:05;;;;;;;;;;;21.10;59.10;;;;;;5053250;28;1433;-69
2021/08/09 03:08:30;;;;;;;;;;;21.10;58.90;;;;;;5053060;28;1201;-69
2021/08/09 03:10:56;;;;;;;;;;;21.00;59.10;;;;;;5053397;28;1393;-69
2021/08/09 03:13:21;;;;;;;;;;;21.00;58.90;;;;;;5053341;28;1479;-69
2021/08/09 03:15:47;;;;;;;;;;;21.00;58.90;;;;;;5053121;28;1432;-69
2021/08/09 03:18:13;;;;;;;;;;;21.00;58.90;;;;;;5054593;28;1116;-69
2021/08/09 03:20:38;;;;;;;;;;;21.00;58.90;;;;;;5054377;28;1957;-70
2021/08/09 03:23:03;;;;;;;;;;;21.00;58.90;;;;;;5054436;28;1443;-71
2021/08/09 03:25:29;;;;;;;;;;;21.00;58.80;;;;;;5054050;28;1676;-71
2021/08/09 03:27:55;;;;;;;;;;;21.00;59.00;;;;;;5034796;28;1523;-71
2021/08/09 03:30:20;;;;;;;;;;;21.00;58.90;;;;;;5033282;28;1454;-70
2021/08/09 03:32:45;;;;;;;;;;;21.00;58.70;;;;;;5034425;28;1402;-70
2021/08/09 03:35:11;;;;;;;;;;;21.00;58.50;;;;;;5038056;28;1563;-70
2021/08/09 03:37:36;;;;;;;;;;;21.00;58.40;;;;;;5054160;28;1379;-69
2021/08/09 03:40:02;;;;;;;;;;;21.00;58.80;;;;;;5053984;28;1898;-70
2021/08/09 03:42:27;;;;;;;;;;;21.00;58.50;;;;;;5052929;28;1630;-70
2021/08/09 03:44:53;;;;;;;;;;;21.00;58.60;;;;;;5053540;28;1533;-70
2021/08/09 03:47:18;;;;;;;;;;;21.00;58.70;;;;;;5054075;28;1361;-69
2021/08/09 03:49:44;;;;;;;;;;;21.00;58.90;;;;;;5053882;28;1428;-68
2021/08/09 03:52:09;;;;;;;;;;;21.00;59.00;;;;;;5045609;28;1392;-69
2021/08/09 03:54:35;;;;;;;;;;;21.00;58.90;;;;;;5039888;28;1393;-68
2021/08/09 03:57:00;;;;;;;;;;;21.00;59.00;;;;;;5053522;28;1396;-68
2021/08/09 03:59:25;;;;;;;;;;;20.90;58.80;;;;;;5053524;28;1941;-68
2021/08/09 04:01:51;;;;;;;;;;;20.90;58.50;;;;;;5053724;28;1653;-68
2021/08/09 04:04:16;;;;;;;;;;;21.00;58.70;;;;;;5053270;28;1699;-68
2021/08/09 04:06:42;;;;;;;;;;;20.90;58.80;;;;;;5052453;28;1670;-68
2021/08/09 04:09:07;;;;;;;;;;;20.90;58.50;;;;;;5053241;28;1658;-68
2021/08/09 04:11:33;;;;;;;;;;;20.90;58.60;;;;;;5053526;28;1373;-68
2021/08/09 04:13:59;;;;;;;;;;;20.90;58.60;;;;;;5051681;28;1393;-68
2021/08/09 04:16:24;;;;;;;;;;;20.90;58.60;;;;;;5052197;28;1396;-68
2021/08/09 04:18:50;;;;;;;;;;;20.90;58.60;;;;;;5051899;28;1660;-68
2021/08/09 04:21:15;;;;;;;;;;;20.90;58.40;;;;;;5051498;28;1913;-68
2021/08/09 04:23:41;;;;;;;;;;;20.90;58.30;;;;;;5052969;28;1620;-68
2021/08/09 04:26:06;;;;;;;;;;;20.90;58.50;;;;;;5048108;28;1388;-68
2021/08/09 04:28:31;;;;;;;;;;;20.90;58.50;;;;;;5033246;28;1397;-68
2021/08/09 04:30:57;;;;;;;;;;;20.90;58.90;;;;;;5033065;28;1254;-68
2021/08/09 04:33:22;;;;;;;;;;;20.90;58.60;;;;;;5032824;28;1504;-68
2021/08/09 04:35:48;;;;;;;;;;;20.90;58.60;;;;;;5042988;28;1248;-68
2021/08/09 04:38:13;;;;;;;;;;;20.90;58.40;;;;;;5052535;28;1205;-68
2021/08/09 04:40:40;;;;;;;;;;;20.90;58.80;;;;;;5052697;28;1965;-68
2021/08/09 04:43:05;;;;;;;;;;;20.90;58.60;;;;;;5051452;28;1659;-68
2021/08/09 04:45:31;;;;;;;;;;;20.90;58.60;;;;;;5052048;28;1380;-68
2021/08/09 04:47:56;;;;;;;;;;;20.90;58.90;;;;;;5052817;28;1658;-68
2021/08/09 04:50:22;;;;;;;;;;;20.90;58.40;;;;;;5052832;28;1260;-70
2021/08/09 04:52:47;;;;;;;;;;;20.90;58.60;;;;;;5037995;28;1095;-70
2021/08/09 04:55:13;;;;;;;;;;;20.90;58.80;;;;;;5032387;28;1297;-70
2021/08/09 04:57:39;;;;;;;;;;;20.90;58.90;;;;;;5031627;28;1690;-70
2021/08/09 05:00:04;;;;;;;;;;;20.90;58.70;;;;;;5031697;28;1965;-70
2021/08/09 05:02:30;;;;;;;;;;;20.90;58.90;;;;;;5032720;28;1397;-70
2021/08/09 05:04:55;;;;;;;;;;;20.80;58.90;;;;;;5032417;28;1376;-70
2021/08/09 05:07:21;;;;;;;;;;;20.90;59.40;;;;;;5031517;28;1585;-70
2021/08/09 05:09:46;;;;;;;;;;;20.80;59.90;;;;;;5030573;28;1819;-70
2021/08/09 05:12:11;;;;;;;;;;;20.80;59.40;;;;;;5031843;28;1367;-70
2021/08/09 05:14:37;;;;;;;;;;;20.80;58.90;;;;;;5031311;28;1660;-70
2021/08/09 05:17:02;;;;;;;;;;;20.80;59.10;;;;;;5030785;28;1386;-70
2021/08/09 05:19:29;;;;;;;;;;;20.80;58.90;;;;;;5030587;28;1981;-70
2021/08/09 05:21:54;;;;;;;;;;;20.80;58.70;;;;;;5032065;28;1325;-70
2021/08/09 05:24:19;;;;;;;;;;;20.80;58.70;;;;;;5030676;28;1400;-70
2021/08/09 05:26:45;;;;;;;;;;;20.80;59.00;;;;;;5039831;28;1688;-70
2021/08/09 05:29:10;;;;;;;;;;;20.80;58.90;;;;;;5032491;28;1154;-70
2021/08/09 05:31:36;;;;;;;;;;;20.80;58.90;;;;;;5033255;28;1389;-70
2021/08/09 05:34:01;;;;;;;;;;;20.80;59.20;;;;;;5034832;28;1577;-69
2021/08/09 05:36:27;;;;;;;;;;;20.80;59.30;;;;;;5050665;28;1604;-68
2021/08/09 05:38:52;;;;;;;;;;;20.80;59.30;;;;;;5054843;28;1654;-68
2021/08/09 05:41:17;;;;;;;;;;;20.80;59.50;;;;;;5045525;28;1906;-68
2021/08/09 05:43:43;;;;;;;;;;;20.80;59.60;;;;;;5054898;28;1322;-68
2021/08/09 05:46:08;;;;;;;;;;;20.80;59.60;;;;;;5055914;28;1422;-68
2021/08/09 05:48:34;;;;;;;;;;;20.80;59.50;;;;;;5056063;28;1351;-68
2021/08/09 05:50:59;;;;;;;;;;;20.80;59.70;;;;;;5055813;28;1654;-68
2021/08/09 05:53:28;;;;;;;;;;;20.80;59.70;;;;;;5036655;28;1462;-68
2021/08/09 05:55:54;;;;;;;;;;;20.80;59.90;;;;;;5032766;28;1183;-68
2021/08/09 05:58:19;;;;;;;;;;;20.80;59.90;;;;;;5022891;28;1362;-68
2021/08/09 06:00:45;;;;;;;;;;;20.80;59.90;;;;;;5035295;28;1984;-68
2021/08/09 06:03:18;;;;;;;;;;;20.80;59.90;;;;;;5036449;28;1356;-68
2021/08/09 06:05:43;;;;;;;;;;;20.80;59.80;;;;;;5038017;28;1435;-69
2021/08/09 06:08:08;;;;;;;;;;;20.80;59.80;;;;;;5035316;28;1257;-70
2021/08/09 06:10:34;;;;;;;;;;;20.80;59.90;;;;;;5033728;28;1697;-70
2021/08/09 06:12:59;;;;;;;;;;;20.80;60.10;;;;;;5034265;28;1318;-70
2021/08/09 06:15:25;;;;;;;;;;;20.80;60.30;;;;;;5034865;28;1406;-70
2021/08/09 06:17:50;;;;;;;;;;;20.80;60.60;;;;;;5034594;28;1663;-70
2021/08/09 06:20:16;;;;;;;;;;;20.80;60.60;;;;;;5035049;28;1914;-70
2021/08/09 06:22:41;;;;;;;;;;;20.80;60.50;;;;;;5034687;28;1714;-70
2021/08/09 06:25:07;;;;;;;;;;;20.80;60.70;;;;;;5034748;28;1244;-70
2021/08/09 06:27:32;;;;;;;;;;;20.80;60.70;;;;;;5042294;28;1447;-70
2021/08/09 06:29:58;;;;;;;;;;;20.80;61.00;;;;;;5035340;28;1651;-70
2021/08/09 06:32:24;;;;;;;;;;;20.80;61.00;;;;;;5035098;28;1111;-70
2021/08/09 06:34:49;;;;;;;;;;;20.80;61.80;;;;;;5035905;28;1172;-70
2021/08/09 06:37:16;;;;;;;;;;;20.80;64.10;;;;;;5054593;28;1253;-70
2021/08/09 06:39:41;;;;;;;;;;;20.80;65.10;;;;;;5036845;28;1922;-69
2021/08/09 06:42:08;;;;;;;;;;;20.80;64.90;;;;;;5056022;28;1383;-69
2021/08/09 06:44:33;;;;;;;;;;;20.80;65.10;;;;;;5050678;28;1625;-67
2021/08/09 06:46:59;;;;;;;;;;;20.80;66.20;;;;;;5034428;28;1366;-67
2021/08/09 06:49:25;;;;;;;;;;;20.90;65.80;;;;;;5033799;28;1782;-67
2021/08/09 06:51:50;;;;;;;;;;;20.90;66.60;;;;;;5040456;28;1329;-67
2021/08/09 06:54:15;;;;;;;;;;;20.90;66.70;;;;;;5038804;28;1374;-66
2021/08/09 06:56:41;;;;;;;;;;;20.90;66.50;;;;;;5033208;28;1347;-68
2021/08/09 06:59:06;;;;;;;;;;;20.90;66.00;;;;;;5033126;28;1376;-68
2021/08/09 07:01:32;;;;;;;;;;;20.90;65.50;;;;;;5032139;28;1924;-68
2021/08/09 07:03:58;;;;;;;;;;;20.90;66.00;;;;;;5032713;28;1486;-68
2021/08/09 07:06:24;;;;;;;;;;;20.90;66.20;;;;;;5032751;28;1650;-68
2021/08/09 07:08:50;;;;;;;;;;;20.90;66.40;;;;;;5034505;28;1359;-68
2021/08/09 07:11:15;;;;;;;;;;;20.90;65.50;;;;;;5033000;28;1071;-68
2021/08/09 07:13:41;;;;;;;;;;;20.90;65.70;;;;;;5042828;22;1901;-76
2021/08/09 07:16:06;;;;;;;;;;;20.90;66.40;;;;;;5047592;23;2130;-65
2021/08/09 07:18:32;;;;;;;;;;;20.90;66.00;;;;;;5073855;28;1545;-67
2021/08/09 07:20:58;;;;;;;;;;;20.90;65.50;;;;;;5074282;28;1909;-66
2021/08/09 07:23:23;;;;;;;;;;;20.90;65.80;;;;;;5056288;28;1389;-67
2021/08/09 07:25:49;;;;;;;;;;;20.90;66.20;;;;;;5053193;28;1253;-67
2021/08/09 07:28:14;;;;;;;;;;;20.90;65.20;;;;;;5068229;28;1555;-67
2021/08/09 07:30:39;;;;;;;;;;;20.90;65.20;;;;;;5073367;28;1166;-67
2021/08/09 07:33:05;;;;;;;;;;;20.90;65.70;;;;;;5072141;28;1363;-66
2021/08/09 07:35:30;;;;;;;;;;;20.90;65.70;;;;;;5060668;28;1693;-66
2021/08/09 07:37:56;;;;;;;;;;;20.90;65.80;;;;;;5073827;28;1441;-66
2021/08/09 07:40:21;;;;;;;;;;;20.90;65.30;;;;;;5073838;28;1914;-66
2021/08/09 07:42:47;;;;;;;;;;;20.90;65.00;;;;;;5073656;28;1156;-66
2021/08/09 07:45:12;;;;;;;;;;;20.90;65.60;;;;;;5073478;28;1414;-67
2021/08/09 07:47:37;;;;;;;;;;;20.90;65.50;;;;;;5073834;28;1520;-66
2021/08/09 07:50:03;;;;;;;;;;;20.90;65.70;;;;;;5073118;28;1583;-66
2021/08/09 07:52:29;;;;;;;;;;;20.90;65.40;;;;;;5044289;28;1411;-66
2021/08/09 07:54:55;;;;;;;;;;;20.90;65.10;;;;;;5071996;28;1559;-66
2021/08/09 07:57:21;;;;;;;;;;;20.90;64.60;;;;;;5072685;28;1411;-66
2021/08/09 07:59:46;;;;;;;;;;;20.90;64.40;;;;;;5055412;28;1951;-66
2021/08/09 08:02:12;;;;;;;;;;;20.90;65.20;;;;;;5055566;28;1478;-66
2021/08/09 08:04:38;;;;;;;;;;;20.90;65.60;;;;;;5072930;28;1670;-66
2021/08/09 08:07:03;;;;;;;;;;;20.90;66.10;;;;;;5073498;28;1381;-66
2021/08/09 08:09:28;;;;;;;;;;;20.90;65.50;;;;;;5072962;28;1661;-66
2021/08/09 08:11:54;;;;;;;;;;;20.90;64.90;;;;;;5072762;28;1589;-66
2021/08/09 08:14:19;;;;;;;;;;;20.90;65.90;;;;;;5071500;28;1738;-67
2021/08/09 08:16:46;;;;;;;;;;;21.00;66.30;;;;;;5072852;28;1383;-66
2021/08/09 08:19:11;;;;;;;;;;;21.00;66.30;;;;;;5072893;28;1153;-66
2021/08/09 08:21:37;;;;;;;;;;;21.00;66.60;;;;;;5063122;28;2112;-67
2021/08/09 08:24:02;;;;;;;;;;;21.00;66.30;;;;;;5055819;28;1697;-66
2021/08/09 08:26:28;;;;;;;;;;;21.00;66.60;;;;;;5030358;28;1450;-66
2021/08/09 08:28:53;;;;;;;;;;;21.00;66.60;;;;;;5061489;28;1706;-66
2021/08/09 08:31:19;;;;;;;;;;;21.00;66.40;;;;;;5063704;28;1376;-66
2021/08/09 08:33:44;;;;;;;;;;;21.00;66.00;;;;;;5049453;28;1630;-68
2021/08/09 08:36:09;;;;;;;;;;;21.00;65.80;;;;;;5046963;28;1397;-67
2021/08/09 08:38:36;;;;;;;;;;;21.00;66.40;;;;;;5072577;28;1421;-66
2021/08/09 08:41:04;;;;;;;;;;;21.00;66.50;;;;;;5072852;28;1910;-67
2021/08/09 08:43:30;;;;;;;;;;;21.00;65.70;;;;;;5072760;28;1706;-67
2021/08/09 08:45:56;;;;;;;;;;;21.00;66.50;;;;;;5072467;28;1339;-66
2021/08/09 08:48:22;;;;;;;;;;;21.00;66.20;;;;;;5072533;28;1600;-67
2021/08/09 08:50:47;;;;;;;;;;;21.00;66.20;;;;;;5054807;28;1727;-66
2021/08/09 08:53:13;;;;;;;;;;;21.00;66.30;;;;;;5062026;28;1423;-66
2021/08/09 08:55:38;;;;;;;;;;;21.00;65.60;;;;;;5071531;28;1680;-67
2021/08/09 08:58:03;;;;;;;;;;;21.00;66.30;;;;;;5063701;28;2046;-67
2021/08/09 09:00:36;;;;;;;;;;;21.00;66.00;;;;;;5050344;28;1951;-65
2021/08/09 09:03:03;;;;;;;;;;;21.00;66.40;;;;;;5053732;28;1529;-67
2021/08/09 09:05:30;;;;;;;;;;;21.00;66.40;;;;;;5054763;28;1704;-66
2021/08/09 09:07:56;;;;;;;;;;;21.00;66.50;;;;;;5079278;28;1657;-67
2021/08/09 09:10:25;;;;;;;;;;;21.00;65.60;;;;;;5079137;28;1569;-66
2021/08/09 09:13:10;;;;;;;;;;;21.00;65.70;;;;;;5079387;28;1698;-66
2021/08/09 09:15:54;;;;;;;;;;;21.00;66.20;;;;;;5054753;28;1455;-66
2021/08/09 09:18:20;;;;;;;;;;;21.00;66.70;;;;;;5071816;28;1670;-66
2021/08/09 09:20:45;;;;;;;;;;;21.00;66.30;;;;;;5078352;28;1909;-66
2021/08/09 09:23:12;;;;;;;;;;;21.00;66.80;;;;;;5060841;28;1377;-67
2021/08/09 09:25:37;;;;;;;;;;;21.00;65.30;;;;;;5074351;28;1659;-66
2021/08/09 09:28:21;;;;;;;;;;;21.00;65.70;;;;;;5065548;28;1339;-67
2021/08/09 09:30:47;;;;;;;;;;;21.00;66.40;;;;;;5055192;28;1621;-66
2021/08/09 09:33:12;;;;;;;;;;;21.00;65.40;;;;;;5063511;28;1442;-67
2021/08/09 09:35:38;;;;;;;;;;;21.00;66.60;;;;;;5067166;28;1600;-67
2021/08/09 09:38:03;;;;;;;;;;;21.00;66.10;;;;;;5079242;28;1531;-66
2021/08/09 09:40:30;;;;;;;;;;;21.00;67.40;;;;;;5078884;28;1952;-67
2021/08/09 09:42:56;;;;;;;;;;;21.00;66.70;;;;;;5061117;28;1649;-66
2021/08/09 09:45:26;;;;;;;;;;;21.00;66.70;;;;;;5060466;28;1701;-66
2021/08/09 09:48:05;;;;;;;;;;;21.00;66.60;;;;;;5061423;28;1674;-66
2021/08/09 09:50:31;;;;;;;;;;;21.00;66.70;;;;;;5079102;28;1657;-67
2021/08/09 09:52:56;;;;;;;;;;;21.00;66.70;;;;;;5067843;28;1353;-66
2021/08/09 09:55:21;;;;;;;;;;;21.00;66.60;;;;;;5071148;28;1356;-66
2021/08/09 09:57:47;;;;;;;;;;;21.00;66.30;;;;;;5078810;28;1593;-66
2021/08/09 10:00:13;;;;;;;;;;;21.00;66.70;;;;;;5078123;28;1906;-67
2021/08/09 10:02:39;;;;;;;;;;;21.00;66.50;;;;;;5078500;28;1706;-67
2021/08/09 10:05:05;;;;;;;;;;;21.00;66.50;;;;;;5060695;28;1886;-66
2021/08/09 10:07:30;;;;;;;;;;;21.00;66.10;;;;;;5078825;28;1674;-66
2021/08/09 10:09:56;;;;;;;;;;;21.00;66.40;;;;;;5060488;28;1695;-67
2021/08/09 10:12:22;;;;;;;;;;;21.00;66.60;;;;;;5061082;28;1641;-66
2021/08/09 10:14:48;;;;;;;;;;;21.00;66.80;;;;;;5035411;28;1783;-67
2021/08/09 10:17:14;;;;;;;;;;;21.00;66.90;;;;;;5026739;28;2227;-66
2021/08/09 10:19:40;;;;;;;;;;;21.00;66.90;;;;;;5059592;28;1910;-67
2021/08/09 10:22:05;;;;;;;;;;;21.00;66.80;;;;;;5066094;28;1438;-65
2021/08/09 10:24:41;;;;;;;;;;;21.00;66.30;;;;;;5053704;28;1485;-65
2021/08/09 10:27:06;;;;;;;;;;;21.10;65.70;;;;;;5057400;28;1485;-66
2021/08/09 10:29:32;;;;;;;;;;;21.10;64.80;;;;;;5055467;28;1490;-65
2021/08/09 10:32:17;;;;;;;;;;;21.10;64.90;;;;;;5052086;28;1431;-65
2021/08/09 10:34:42;;;;;;;;;;;21.10;64.40;;;;;;5052555;28;1456;-66
2021/08/09 10:37:09;;;;;;;;;;;21.10;64.70;;;;;;5054568;28;2093;-66
2021/08/09 10:39:47;;;;;;;;;;;21.10;65.30;;;;;;5054785;28;1906;-66
2021/08/09 10:42:32;;;;;;;;;;;21.10;65.20;;;;;;5032809;28;1471;-66
2021/08/09 10:44:58;;;;;;;;;;;21.10;65.30;;;;;;5052725;28;1522;-67
2021/08/09 10:47:42;;;;;;;;;;;21.10;64.40;;;;;;5053614;28;1394;-67
2021/08/09 10:50:07;;;;;;;;;;;21.10;64.10;;;;;;5053045;28;1968;-67
2021/08/09 10:52:33;;;;;;;;;;;21.10;63.90;;;;;;5054159;28;1272;-66
2021/08/09 10:55:19;;;;;;;;;;;21.10;63.40;;;;;;5051678;28;1661;-65
2021/08/09 10:57:44;;;;;;;;;;;21.10;62.80;;;;;;5036308;28;1480;-65
2021/08/09 11:00:10;;;;;;;;;;;21.10;63.80;;;;;;5053425;28;1894;-64
2021/08/09 11:02:35;;;;;;;;;;;21.20;65.20;;;;;;5054327;28;1432;-65
2021/08/09 11:05:13;;;;;;;;;;;21.10;65.60;;;;;;5064407;28;1532;-66
2021/08/09 11:07:38;;;;;;;;;;;21.10;65.00;;;;;;5074732;28;1427;-66
2021/08/09 11:10:04;;;;;;;;;;;21.10;63.60;;;;;;5073871;28;1705;-66
2021/08/09 11:12:30;;;;;;;;;;;21.20;63.80;;;;;;5074736;28;1173;-66
2021/08/09 11:17:27;;;;;;;;;;;21.20;63.40;;;;;;5074758;28;1610;-66
2021/08/09 11:19:52;;;;;;;;;;;21.20;62.50;;;;;;5056686;28;1906;-66
2021/08/09 11:22:18;;;;;;;;;;;21.20;62.10;;;;;;5056852;28;1378;-66
2021/08/09 11:24:43;;;;;;;;;;;21.20;62.40;;;;;;5055986;28;1618;-65
2021/08/09 11:27:09;;;;;;;;;;;21.20;63.30;;;;;;5049992;28;2276;-67
2021/08/09 11:29:53;;;;;;;;;;;21.20;63.10;;;;;;5047670;28;2023;-66
2021/08/09 11:32:37;;;;;;;;;;;21.20;62.50;;;;;;5054612;28;1449;-66
2021/08/09 11:35:03;;;;;;;;;;;21.30;61.70;;;;;;5048063;28;2296;-66
2021/08/09 11:37:29;;;;;;;;;;;21.30;60.90;;;;;;5023018;28;1606;-66
2021/08/09 11:39:54;;;;;;;;;;;21.30;59.90;;;;;;5038215;28;1953;-65
2021/08/09 11:42:19;;;;;;;;;;;21.40;59.20;;;;;;5074244;28;1386;-66
2021/08/09 11:44:46;;;;;;;;;;;21.30;58.50;;;;;;5055869;28;1513;-66
2021/08/09 11:47:18;;;;;;;;;;;21.30;58.50;;;;;;5074020;28;1606;-65
2021/08/09 11:49:44;;;;;;;;;;;21.30;59.70;;;;;;5055871;28;1682;-65
2021/08/09 11:52:09;;;;;;;;;;;21.30;59.20;;;;;;5053916;28;1430;-65
2021/08/09 11:54:38;;;;;;;;;;;21.40;60.30;;;;;;5061882;28;1334;-65
2021/08/09 11:57:04;;;;;;;;;;;21.40;60.50;;;;;;5064601;28;1648;-66
2021/08/09 11:59:32;;;;;;;;;;;21.40;61.50;;;;;;5073528;28;1146;-65
2021/08/09 12:02:07;;;;;;;;;;;21.40;63.00;;;;;;5073609;28;1965;-65
2021/08/09 12:04:45;;;;;;;;;;;21.40;63.50;;;;;;5073266;28;1464;-66
2021/08/09 12:07:17;;;;;;;;;;;21.40;63.10;;;;;;5054591;28;1417;-66
2021/08/09 12:09:43;;;;;;;;;;;21.40;62.50;;;;;;5034028;28;1330;-66
2021/08/09 12:12:09;;;;;;;;;;;21.40;63.10;;;;;;5052653;28;1274;-67
2021/08/09 12:14:35;;;;;;;;;;;21.40;60.20;;;;;;5051030;28;1433;-66
2021/08/09 12:17:11;;;;;;;;;;;21.40;59.30;;;;;;5054411;28;1427;-67
2021/08/09 12:19:40;;;;;;;;;;;21.40;59.40;;;;;;5052928;28;1246;-66
2021/08/09 12:22:09;;;;;;;;;;;21.40;58.90;;;;;;5053570;28;1491;-67
2021/08/09 12:24:34;;;;;;;;;;;21.40;58.40;;;;;;5050569;28;1396;-68
2021/08/09 12:27:12;;;;;;;;;;;21.40;59.30;;;;;;5034949;28;1290;-67
2021/08/09 12:29:38;;;;;;;;;;;21.40;57.10;;;;;;5054860;28;1257;-67
2021/08/09 12:32:12;;;;;;;;;;;21.40;57.40;;;;;;5055363;28;1701;-66
2021/08/09 12:34:41;;;;;;;;;;;21.40;57.30;;;;;;5032157;28;1476;-66
2021/08/09 12:37:11;;;;;;;;;;;21.40;57.30;;;;;;5033649;28;1401;-66
2021/08/09 12:39:36;;;;;;;;;;;21.40;59.50;;;;;;5053507;28;1418;-67
2021/08/09 12:42:11;;;;;;;;;;;21.40;61.30;;;;;;5048847;28;1963;-67
2021/08/09 12:44:37;;;;;;;;;;;21.40;61.40;;;;;;5052369;28;1332;-66
2021/08/09 12:47:02;;;;;;;;;;;21.40;58.80;;;;;;5051037;28;1257;-66
2021/08/09 12:49:29;;;;;;;;;;;21.40;58.00;;;;;;5034772;28;1310;-67
2021/08/09 12:51:54;;;;;;;;;;;21.40;59.70;;;;;;5050773;28;1337;-66
2021/08/09 12:54:20;;;;;;;;;;;21.40;61.10;;;;;;5053607;28;1433;-65
2021/08/09 12:56:45;;;;;;;;;;;21.40;59.90;;;;;;5060142;28;1336;-64
2021/08/09 12:59:12;;;;;;;;;;;21.40;61.30;;;;;;5053489;28;1614;-65
2021/08/09 13:01:37;;;;;;;;;;;21.40;60.90;;;;;;5053454;28;1967;-66
2021/08/09 13:04:02;;;;;;;;;;;21.40;61.50;;;;;;5071787;28;1673;-65
2021/08/09 13:06:28;;;;;;;;;;;21.40;61.20;;;;;;5071831;28;1617;-65
2021/08/09 13:08:53;;;;;;;;;;;21.40;62.20;;;;;;5053605;28;1665;-65
2021/08/09 13:11:19;;;;;;;;;;;21.40;62.60;;;;;;5054036;28;1398;-65
2021/08/09 13:13:44;;;;;;;;;;;21.40;63.20;;;;;;5071737;28;1367;-65
2021/08/09 13:16:10;;;;;;;;;;;21.40;62.70;;;;;;5027364;22;1005384;-71
2021/08/09 13:18:35;;;;;;;;;;;21.40;61.90;;;;;;5033450;28;1367;-69
2021/08/09 13:21:01;;;;;;;;;;;21.40;61.50;;;;;;5050781;28;1918;-69
2021/08/09 13:23:26;;;;;;;;;;;21.40;62.20;;;;;;5052127;28;1634;-70
2021/08/09 13:25:52;;;;;;;;;;;21.40;61.10;;;;;;5050442;28;1197;-68
2021/08/09 13:28:17;;;;;;;;;;;21.40;60.50;;;;;;5050977;28;1584;-69
2021/08/09 13:30:43;;;;;;;;;;;21.50;60.00;;;;;;5052439;28;1369;-70
2021/08/09 13:33:08;;;;;;;;;;;21.50;60.40;;;;;;5052064;28;1348;-69
2021/08/09 13:35:33;;;;;;;;;;;21.50;59.70;;;;;;5051293;28;1439;-70
2021/08/09 13:38:00;;;;;;;;;;;21.50;58.40;;;;;;5044109;28;1151;-69
2021/08/09 13:40:25;;;;;;;;;;;21.50;60.00;;;;;;5024687;28;1976;-69
2021/08/09 13:42:56;;;;;;;;;;;21.50;59.50;;;;;;5041083;28;1385;-68
2021/08/09 13:45:21;;;;;;;;;;;21.50;59.10;;;;;;5041991;28;1322;-70
2021/08/09 13:47:47;;;;;;;;;;;21.50;59.40;;;;;;5042840;28;1394;-68
2021/08/09 13:50:12;;;;;;;;;;;21.50;61.90;;;;;;5042918;28;1358;-69
2021/08/09 13:52:38;;;;;;;;;;;21.50;61.60;;;;;;5046136;28;1177;-68
2021/08/09 13:55:04;;;;;;;;;;;21.50;61.80;;;;;;5045241;28;1383;-68
2021/08/09 13:57:29;;;;;;;;;;;21.50;63.30;;;;;;5046562;28;1351;-71
2021/08/09 13:59:54;;;;;;;;;;;21.50;63.90;;;;;;5045124;28;1938;-71
2021/08/09 14:02:20;;;;;;;;;;;21.50;66.90;;;;;;5051377;28;1354;-69
2021/08/09 14:04:45;;;;;;;;;;;21.50;66.20;;;;;;5053451;28;1342;-69
2021/08/09 14:07:11;;;;;;;;;;;21.50;63.70;;;;;;5054271;28;1335;-70
2021/08/09 14:09:38;;;;;;;;;;;21.60;62.90;;;;;;5056105;28;947;-69
2021/08/09 14:12:03;;;;;;;;;;;21.60;63.60;;;;;;5055493;28;1118;-69
2021/08/09 14:14:29;;;;;;;;;;;21.60;64.70;;;;;;5054965;28;1307;-69
2021/08/09 14:16:54;;;;;;;;;;;21.60;65.10;;;;;;5055406;28;726;-69
2021/08/09 14:19:19;;;;;;;;;;;21.60;63.60;;;;;;5054408;28;1138;-70
2021/08/09 14:21:45;;;;;;;;;;;21.60;62.10;;;;;;5054202;28;1898;-69
2021/08/09 14:24:10;;;;;;;;;;;21.60;62.70;;;;;;5049427;28;1171;-70
2021/08/09 14:26:36;;;;;;;;;;;21.60;62.00;;;;;;5054250;28;1212;-70
2021/08/09 14:29:01;;;;;;;;;;;21.60;61.80;;;;;;5055245;28;1068;-70
2021/08/09 14:31:27;;;;;;;;;;;21.60;61.40;;;;;;5055426;28;1040;-70